createdAt,value
2017-10-10T00:00:13.672Z,99.8
2017-10-10T00:05:10.584Z,99.7
2017-10-10T00:10:15.913Z,99.8
2017-10-10T00:15:03.359Z,99.8
2017-10-10T00:20:23.451Z,99.8
2017-10-10T00:25:02.758Z,99.8
2017-10-10T00:30:03.500Z,99.9
2017-10-10T00:35:05.624Z,99.9
2017-10-10T00:40:05.845Z,99.9
2017-10-10T00:45:03.407Z,99.9
2017-10-10T00:50:08.200Z,99.9
2017-10-10T00:55:05.236Z,99.9
2017-10-10T01:00:03.447Z,99.9
2017-10-10T01:05:02.995Z,99.9
2017-10-10T01:10:03.256Z,99.9
2017-10-10T01:15:05.780Z,99.9
2017-10-10T01:20:03.069Z,99.9
2017-10-10T01:25:08.616Z,99.9
2017-10-10T01:30:05.848Z,99.9
2017-10-10T01:35:07.983Z,99.9
2017-10-10T01:40:05.670Z,99.9
2017-10-10T01:45:05.776Z,99.9
2017-10-10T01:50:07.983Z,99.9
2017-10-10T01:55:06.078Z,99.9
2017-10-10T02:00:18.452Z,99.9
2017-10-10T02:05:02.939Z,99.9
2017-10-10T02:10:18.367Z,99.9
2017-10-10T02:15:10.873Z,99.9
2017-10-10T02:20:05.647Z,99.9
2017-10-10T02:25:07.721Z,99.9
2017-10-10T02:30:03.383Z,99.9
2017-10-10T02:35:08.073Z,99.9
2017-10-10T02:40:18.578Z,99.9
2017-10-10T02:45:03.353Z,99.9
2017-10-10T02:50:03.317Z,99.9
2017-10-10T02:55:07.773Z,99.9
2017-10-10T03:00:08.521Z,99.9
2017-10-10T03:05:05.576Z,99.9
2017-10-10T03:10:03.268Z,99.9
2017-10-10T03:15:08.361Z,99.9
2017-10-10T03:20:05.677Z,99.9
2017-10-10T03:25:02.687Z,99.9
2017-10-10T03:30:03.448Z,99.9
2017-10-10T03:35:08.072Z,99.9
2017-10-10T03:40:13.522Z,99.9
2017-10-10T03:45:16.059Z,99.9
2017-10-10T03:55:05.309Z,99.9
2017-10-10T04:00:08.604Z,99.9
2017-10-10T04:05:05.653Z,99.9
2017-10-10T04:10:08.549Z,99.9
2017-10-10T04:15:11.090Z,99.8
2017-10-10T04:20:05.927Z,99.9
2017-10-10T04:25:07.986Z,99.8
2017-10-10T04:30:35.538Z,99.6
2017-10-10T04:35:05.839Z,99.7
2017-10-10T04:40:18.767Z,99.6
2017-10-10T04:45:02.754Z,99.6
2017-10-10T04:50:05.962Z,99.9
2017-10-10T04:55:05.503Z,99.7
2017-10-10T05:00:05.283Z,99.9
2017-10-10T05:05:08.357Z,99.9
2017-10-10T05:10:08.664Z,99.9
2017-10-10T05:15:33.004Z,99.9
2017-10-10T05:25:05.521Z,99.9
2017-10-10T05:30:25.498Z,99.9
2017-10-10T05:35:15.975Z,99.9
2017-10-10T05:40:08.647Z,99.6
2017-10-10T05:45:02.678Z,99.6
2017-10-10T05:50:05.968Z,99.4
2017-10-10T05:55:05.529Z,99.2
2017-10-10T06:00:05.170Z,99.2
2017-10-10T06:05:10.900Z,99.1
2017-10-10T06:10:03.487Z,99.1
2017-10-10T06:15:06.116Z,99.2
2017-10-10T06:20:05.847Z,99.1
2017-10-10T06:25:07.985Z,99.2
2017-10-10T06:30:02.614Z,99.1
2017-10-10T06:35:10.756Z,99
2017-10-10T06:40:05.998Z,99.1
2017-10-10T06:45:11.063Z,99.1
2017-10-10T06:50:10.812Z,99
2017-10-10T06:55:10.400Z,99.2
2017-10-10T07:00:08.622Z,99.3
2017-10-10T07:05:05.689Z,99.6
2017-10-10T07:10:08.584Z,99.3
2017-10-10T07:15:02.619Z,99.3
2017-10-10T07:20:13.494Z,99.1
2017-10-10T07:25:05.537Z,99.2
2017-10-10T07:30:02.762Z,99.2
2017-10-10T07:35:10.986Z,99.2
2017-10-10T07:40:05.264Z,99.3
2017-10-10T07:45:05.401Z,99.6
2017-10-10T07:50:06.147Z,99.8
2017-10-10T07:55:13.351Z,99.8
2017-10-10T08:00:08.044Z,99.8
2017-10-10T08:05:02.620Z,99.8
2017-10-10T08:15:10.619Z,99.9
2017-10-10T08:20:02.820Z,99.9
2017-10-10T08:25:08.548Z,99.7
2017-10-10T08:30:13.471Z,99.7
2017-10-10T08:35:05.508Z,99.7
2017-10-10T08:40:08.331Z,99.5
2017-10-10T08:45:05.961Z,99.7
2017-10-10T08:55:13.058Z,99.9
2017-10-10T09:00:05.294Z,99.8
2017-10-10T09:05:03.366Z,99.8
2017-10-10T09:10:20.399Z,98.9
2017-10-10T09:15:05.477Z,98.7
2017-10-10T09:20:15.417Z,98.8
2017-10-10T09:25:05.988Z,99.1
2017-10-10T09:30:05.804Z,99.3
2017-10-10T09:35:02.916Z,99.3
2017-10-10T09:40:05.789Z,99.7
2017-10-10T09:45:21.118Z,99.5
2017-10-10T09:50:03.219Z,99.5
2017-10-10T09:55:18.051Z,99.2
2017-10-10T10:00:02.665Z,99.3
2017-10-10T10:05:16.004Z,99.1
2017-10-10T10:10:35.566Z,99
2017-10-10T10:15:02.857Z,99
2017-10-10T10:20:05.209Z,98.9
2017-10-10T10:25:08.421Z,98.6
2017-10-10T10:30:03.240Z,98.6
2017-10-10T10:35:08.032Z,98.8
2017-10-10T10:40:05.933Z,99.1
2017-10-10T10:45:08.562Z,98.7
2017-10-10T10:50:08.344Z,98.4
2017-10-10T10:55:05.591Z,98.4
2017-10-10T11:00:02.978Z,98.4
2017-10-10T11:05:05.226Z,98.9
2017-10-10T11:10:05.575Z,98.5
2017-10-10T11:15:05.822Z,98.4
2017-10-10T11:20:05.653Z,98.5
2017-10-10T11:25:13.039Z,98.5
2017-10-10T11:30:20.484Z,98.3
2017-10-10T11:35:03.506Z,98.3
2017-10-10T11:40:07.977Z,98.6
2017-10-10T11:45:08.095Z,98.4
2017-10-10T11:55:05.173Z,98.2
2017-10-10T12:00:08.522Z,98.4
2017-10-10T12:05:05.657Z,98.1
2017-10-10T12:10:08.554Z,98.4
2017-10-10T12:15:20.352Z,98.1
2017-10-10T12:20:03.575Z,98.1
2017-10-10T12:25:10.714Z,97.5
2017-10-10T12:30:02.972Z,97.5
2017-10-10T12:35:07.728Z,97.7
2017-10-10T12:45:03.198Z,98.1
2017-10-10T12:50:03.062Z,98.4
2017-10-10T12:55:02.815Z,98.4
2017-10-10T13:00:02.672Z,98.5
2017-10-10T13:05:03.335Z,98.8
2017-10-10T13:10:10.430Z,98.7
2017-10-10T13:15:15.591Z,98.7
2017-10-10T13:20:07.810Z,98.6
2017-10-10T13:25:06.049Z,98.7
2017-10-10T13:30:13.493Z,98.5
2017-10-10T13:35:05.650Z,98.6
2017-10-10T13:40:11.111Z,98.4
2017-10-10T13:45:02.773Z,98.4
2017-10-10T13:50:05.337Z,98
2017-10-10T13:55:10.998Z,98
2017-10-10T14:00:03.377Z,98
2017-10-10T14:05:15.649Z,98.4
2017-10-10T14:10:05.912Z,98.4
2017-10-10T14:15:10.201Z,98.4
2017-10-10T14:20:16.134Z,98.5
2017-10-10T14:25:10.805Z,98.2
2017-10-10T14:30:08.148Z,98.2
2017-10-10T14:35:02.826Z,98.2
2017-10-10T14:40:05.320Z,98.1
2017-10-10T14:45:03.391Z,98.1
2017-10-10T14:50:03.200Z,98.3
2017-10-10T14:55:10.509Z,98.1
2017-10-10T15:00:02.817Z,98.1
2017-10-10T15:05:06.075Z,98.1
2017-10-10T15:10:02.858Z,98
2017-10-10T15:15:25.895Z,98.1
2017-10-10T15:20:10.604Z,98.1
2017-10-10T15:25:10.316Z,98.1
2017-10-10T15:30:10.192Z,98.2
2017-10-10T15:35:03.337Z,98.2
2017-10-10T15:40:15.391Z,98.3
2017-10-10T15:45:08.091Z,98.2
2017-10-10T15:50:07.907Z,98.3
2017-10-10T15:55:05.187Z,98.2
2017-10-10T16:00:03.480Z,98.1
2017-10-10T16:05:08.297Z,98.4
2017-10-10T16:10:07.664Z,98.4
2017-10-10T16:15:28.178Z,98.4
2017-10-10T16:20:12.821Z,98.5
2017-10-10T16:25:03.491Z,98.5
2017-10-10T16:30:05.931Z,98.7
2017-10-10T16:35:03.127Z,98.7
2017-10-10T16:40:06.030Z,98.8
2017-10-10T16:45:02.817Z,98.8
2017-10-10T16:50:05.211Z,98.9
2017-10-10T16:55:03.501Z,98.9
2017-10-10T17:00:03.313Z,98.9
2017-10-10T17:05:08.195Z,98.7
2017-10-10T17:10:06.112Z,98.5
2017-10-10T17:15:10.348Z,98.5
2017-10-10T17:20:02.649Z,98.4
2017-10-10T17:25:03.395Z,98.4
2017-10-10T17:30:05.774Z,98.5
2017-10-10T17:35:10.641Z,98.6
2017-10-10T17:40:03.482Z,98.6
2017-10-10T17:45:02.644Z,98.6
2017-10-10T17:50:03.604Z,98.7
2017-10-10T17:55:10.871Z,98.8
2017-10-10T18:00:03.139Z,98.8
2017-10-10T18:05:05.412Z,98.8
2017-10-10T18:10:31.225Z,98.6
2017-10-10T18:15:03.536Z,98.6
2017-10-10T18:20:06.868Z,98.5
2017-10-10T18:25:03.164Z,98.5
2017-10-10T18:30:08.140Z,98.4
2017-10-10T18:35:15.663Z,98.2
2017-10-10T18:40:05.813Z,98.2
2017-10-10T18:45:05.960Z,98.1
2017-10-10T18:50:03.295Z,98.1
2017-10-10T18:55:05.615Z,98
2017-10-10T19:00:05.478Z,98.1
2017-10-10T19:05:15.335Z,98.1
2017-10-10T19:15:15.865Z,98.1
2017-10-10T19:20:15.699Z,98.1
2017-10-10T19:25:05.326Z,98
2017-10-10T19:30:05.192Z,97.7
2017-10-10T19:35:05.888Z,97.7
2017-10-10T19:40:05.309Z,97.4
2017-10-10T19:45:10.570Z,97.2
2017-10-10T19:50:17.947Z,97.2
2017-10-10T19:55:06.036Z,97.1
2017-10-10T20:00:08.484Z,97.1
2017-10-10T20:05:05.677Z,97
2017-10-10T20:10:03.496Z,97
2017-10-10T20:15:02.715Z,96.9
2017-10-10T20:20:38.092Z,96.7
2017-10-10T20:25:15.993Z,96.8
2017-10-10T20:30:05.753Z,96.8
2017-10-10T20:35:02.956Z,96.8
2017-10-10T20:40:05.866Z,97
2017-10-10T20:45:03.517Z,97
2017-10-10T20:50:03.443Z,97
2017-10-10T20:55:05.715Z,96.9
2017-10-10T21:00:03.000Z,96.9
2017-10-10T21:05:02.782Z,96.9
2017-10-10T21:10:18.238Z,96.7
2017-10-10T21:15:03.253Z,96.7
2017-10-10T21:20:03.124Z,96.4
2017-10-10T21:25:02.839Z,96.3
2017-10-10T21:30:05.209Z,96.4
2017-10-10T21:35:18.595Z,96.1
2017-10-10T21:40:05.322Z,96
2017-10-10T21:45:05.490Z,95.8
2017-10-10T21:50:02.841Z,95.8
2017-10-10T21:55:05.148Z,95.8
2017-10-10T22:00:16.121Z,95.6
2017-10-10T22:05:05.755Z,95.8
2017-10-10T22:10:02.600Z,95.8
2017-10-10T22:15:05.353Z,95.7
2017-10-10T22:20:05.288Z,95.7
2017-10-10T22:25:18.586Z,95.7
2017-10-10T22:30:08.363Z,95.7
2017-10-10T22:35:25.845Z,95.6
2017-10-10T22:40:06.015Z,95.8
2017-10-10T22:45:05.287Z,95.7
2017-10-10T22:50:02.603Z,95.7
2017-10-10T22:55:08.464Z,95.6
2017-10-10T23:00:05.904Z,95.7
2017-10-10T23:05:08.146Z,95.8
2017-10-10T23:10:08.532Z,95.5
2017-10-10T23:15:02.754Z,95.5
2017-10-10T23:20:06.086Z,95.6
2017-10-10T23:25:08.444Z,95.7
2017-10-10T23:30:10.810Z,95.7
2017-10-10T23:35:05.506Z,95.7
2017-10-10T23:40:03.379Z,95.7
2017-10-10T23:45:05.159Z,95.5
2017-10-10T23:50:11.019Z,95.6
2017-10-10T23:55:08.305Z,95.6
